sensor_id;sensor_type;location;lat;lon;timestamp;pressure;altitude;pressure_sealevel;temperature;humidity
65997;BME280;52765;52.258;21.052;2023-03-03T00:01:17;101027.22;;;-0.07;100.00
65997;BME280;52765;52.258;21.052;2023-03-03T00:03:43;101034.53;;;-0.12;100.00
65997;BME280;52765;52.258;21.052;2023-03-03T00:06:11;101036.13;;;-0.08;100.00
65997;BME280;52765;52.258;21.052;2023-03-03T00:08:38;101030.25;;;-0.14;100.00
65997;BME280;52765;52.258;21.052;2023-03-03T00:11:04;101020.00;;;-0.22;100.00
65997;BME280;52765;52.258;21.052;2023-03-03T00:13:36;101017.78;;;-0.12;100.00
65997;BME280;52765;52.258;21.052;2023-03-03T00:16:14;101022.81;;;-0.06;100.00
65997;BME280;52765;52.258;21.052;2023-03-03T00:18:43;101019.88;;;-0.19;100.00
65997;BME280;52765;52.258;21.052;2023-03-03T00:21:23;101024.25;;;-0.18;100.00
65997;BME280;52765;52.258;21.052;2023-03-03T00:23:56;101021.16;;;-0.28;100.00
65997;BME280;52765;52.258;21.052;2023-03-03T00:26:36;101020.53;;;-0.33;100.00
65997;BME280;52765;52.258;21.052;2023-03-03T00:31:47;100995.19;;;-0.20;100.00
65997;BME280;52765;52.258;21.052;2023-03-03T00:36:46;100987.13;;;0.01;100.00
65997;BME280;52765;52.258;21.052;2023-03-03T00:41:54;100984.13;;;0.09;100.00
65997;BME280;52765;52.258;21.052;2023-03-03T00:47:36;100975.72;;;0.18;100.00
65997;BME280;52765;52.258;21.052;2023-03-03T00:52:35;100972.97;;;0.02;100.00
65997;BME280;52765;52.258;21.052;2023-03-03T00:55:01;100970.75;;;-0.07;100.00
65997;BME280;52765;52.258;21.052;2023-03-03T00:57:29;100978.78;;;-0.09;100.00
65997;BME280;52765;52.258;21.052;2023-03-03T00:59:58;100974.41;;;-0.29;100.00
65997;BME280;52765;52.258;21.052;2023-03-03T01:02:27;100971.00;;;-0.31;100.00
65997;BME280;52765;52.258;21.052;2023-03-03T01:04:53;100960.19;;;-0.26;100.00
65997;BME280;52765;52.258;21.052;2023-03-03T01:07:22;100957.09;;;-0.17;100.00
65997;BME280;52765;52.258;21.052;2023-03-03T01:09:50;100964.03;;;-0.14;100.00
65997;BME280;52765;52.258;21.052;2023-03-03T01:12:16;100960.41;;;-0.31;100.00
65997;BME280;52765;52.258;21.052;2023-03-03T01:14:41;100948.31;;;-0.36;100.00
65997;BME280;52765;52.258;21.052;2023-03-03T01:17:09;100944.59;;;-0.51;100.00
65997;BME280;52765;52.258;21.052;2023-03-03T01:19:35;100937.22;;;-0.45;100.00
65997;BME280;52765;52.258;21.052;2023-03-03T01:22:00;100943.75;;;-0.33;100.00
65997;BME280;52765;52.258;21.052;2023-03-03T01:24:25;100931.84;;;-0.24;100.00
65997;BME280;52765;52.258;21.052;2023-03-03T01:26:51;100919.31;;;-0.21;100.00
65997;BME280;52765;52.258;21.052;2023-03-03T01:29:17;100926.56;;;-0.07;100.00
65997;BME280;52765;52.258;21.052;2023-03-03T01:31:42;100930.19;;;-0.08;100.00
65997;BME280;52765;52.258;21.052;2023-03-03T01:34:08;100919.50;;;-0.06;100.00
65997;BME280;52765;52.258;21.052;2023-03-03T01:36:34;100920.41;;;-0.25;100.00
65997;BME280;52765;52.258;21.052;2023-03-03T01:39:01;100914.13;;;-0.41;100.00
65997;BME280;52765;52.258;21.052;2023-03-03T01:41:30;100919.91;;;-0.52;100.00
65997;BME280;52765;52.258;21.052;2023-03-03T01:43:59;100899.19;;;-0.61;100.00
65997;BME280;52765;52.258;21.052;2023-03-03T01:46:40;100898.59;;;-0.49;100.00
65997;BME280;52765;52.258;21.052;2023-03-03T01:49:15;100894.75;;;-0.42;100.00
65997;BME280;52765;52.258;21.052;2023-03-03T01:51:47;100906.59;;;-0.31;100.00
65997;BME280;52765;52.258;21.052;2023-03-03T01:54:20;100902.59;;;-0.40;100.00
65997;BME280;52765;52.258;21.052;2023-03-03T01:56:48;100899.28;;;-0.45;100.00
65997;BME280;52765;52.258;21.052;2023-03-03T01:59:19;100906.66;;;-0.52;100.00
65997;BME280;52765;52.258;21.052;2023-03-03T02:01:47;100895.00;;;-0.67;100.00
65997;BME280;52765;52.258;21.052;2023-03-03T02:04:13;100904.16;;;-0.74;100.00
65997;BME280;52765;52.258;21.052;2023-03-03T02:06:45;100898.44;;;-0.84;100.00
65997;BME280;52765;52.258;21.052;2023-03-03T02:09:21;100904.16;;;-0.93;100.00
65997;BME280;52765;52.258;21.052;2023-03-03T02:11:52;100893.53;;;-0.91;100.00
65997;BME280;52765;52.258;21.052;2023-03-03T02:14:19;100906.19;;;-0.79;100.00
65997;BME280;52765;52.258;21.052;2023-03-03T02:16:45;100901.97;;;-0.64;100.00
65997;BME280;52765;52.258;21.052;2023-03-03T02:22:08;100904.66;;;-0.47;100.00
65997;BME280;52765;52.258;21.052;2023-03-03T02:24:41;100905.03;;;-0.54;100.00
65997;BME280;52765;52.258;21.052;2023-03-03T02:27:07;100897.09;;;-0.54;100.00
65997;BME280;52765;52.258;21.052;2023-03-03T02:29:34;100892.22;;;-0.45;100.00
65997;BME280;52765;52.258;21.052;2023-03-03T02:31:59;100896.38;;;-0.39;100.00
65997;BME280;52765;52.258;21.052;2023-03-03T02:34:25;100899.78;;;-0.37;100.00
65997;BME280;52765;52.258;21.052;2023-03-03T02:36:50;100893.00;;;-0.43;100.00
65997;BME280;52765;52.258;21.052;2023-03-03T02:44:38;100892.72;;;-0.56;100.00
65997;BME280;52765;52.258;21.052;2023-03-03T02:47:04;100892.66;;;-0.54;100.00
65997;BME280;52765;52.258;21.052;2023-03-03T02:49:32;100886.78;;;-0.61;100.00
65997;BME280;52765;52.258;21.052;2023-03-03T02:51:58;100895.50;;;-0.59;100.00
65997;BME280;52765;52.258;21.052;2023-03-03T02:54:26;100895.00;;;-0.67;100.00
65997;BME280;52765;52.258;21.052;2023-03-03T02:56:52;100887.66;;;-0.60;100.00
65997;BME280;52765;52.258;21.052;2023-03-03T02:59:17;100885.16;;;-0.63;100.00
65997;BME280;52765;52.258;21.052;2023-03-03T03:01:43;100876.28;;;-0.62;100.00
65997;BME280;52765;52.258;21.052;2023-03-03T03:04:16;100888.13;;;-0.52;100.00
65997;BME280;52765;52.258;21.052;2023-03-03T03:06:44;100891.28;;;-0.44;100.00
65997;BME280;52765;52.258;21.052;2023-03-03T03:09:16;100876.28;;;-0.43;100.00
65997;BME280;52765;52.258;21.052;2023-03-03T03:11:42;100877.84;;;-0.39;100.00
65997;BME280;52765;52.258;21.052;2023-03-03T03:14:10;100875.75;;;-0.32;100.00
65997;BME280;52765;52.258;21.052;2023-03-03T03:16:36;100874.03;;;-0.33;100.00
65997;BME280;52765;52.258;21.052;2023-03-03T03:19:02;100871.47;;;-0.35;100.00
65997;BME280;52765;52.258;21.052;2023-03-03T03:21:29;100880.25;;;-0.34;100.00
65997;BME280;52765;52.258;21.052;2023-03-03T03:23:54;100879.09;;;-0.29;100.00
65997;BME280;52765;52.258;21.052;2023-03-03T03:26:20;100883.75;;;-0.34;100.00
65997;BME280;52765;52.258;21.052;2023-03-03T03:28:49;100877.47;;;-0.31;100.00
65997;BME280;52765;52.258;21.052;2023-03-03T03:31:16;100874.97;;;-0.34;100.00
65997;BME280;52765;52.258;21.052;2023-03-03T03:33:42;100884.31;;;-0.27;100.00
65997;BME280;52765;52.258;21.052;2023-03-03T03:36:07;100879.88;;;-0.27;100.00
65997;BME280;52765;52.258;21.052;2023-03-03T03:38:34;100875.38;;;-0.25;100.00
65997;BME280;52765;52.258;21.052;2023-03-03T03:41:02;100879.25;;;-0.32;100.00
65997;BME280;52765;52.258;21.052;2023-03-03T03:43:27;100887.19;;;-0.32;100.00
65997;BME280;52765;52.258;21.052;2023-03-03T03:45:53;100875.59;;;-0.29;100.00
65997;BME280;52765;52.258;21.052;2023-03-03T03:48:19;100859.22;;;-0.38;100.00
65997;BME280;52765;52.258;21.052;2023-03-03T03:50:48;100874.75;;;-0.30;100.00
65997;BME280;52765;52.258;21.052;2023-03-03T03:53:15;100875.69;;;-0.31;100.00
65997;BME280;52765;52.258;21.052;2023-03-03T03:55:44;100844.19;;;-0.37;100.00
65997;BME280;52765;52.258;21.052;2023-03-03T03:58:14;100858.00;;;-0.30;100.00
65997;BME280;52765;52.258;21.052;2023-03-03T04:00:41;100852.28;;;-0.40;100.00
65997;BME280;52765;52.258;21.052;2023-03-03T04:03:19;100853.97;;;-0.57;100.00
65997;BME280;52765;52.258;21.052;2023-03-03T04:05:45;100847.16;;;-0.62;100.00
65997;BME280;52765;52.258;21.052;2023-03-03T04:08:10;100843.22;;;-0.53;100.00
65997;BME280;52765;52.258;21.052;2023-03-03T04:10:36;100849.31;;;-0.51;100.00
65997;BME280;52765;52.258;21.052;2023-03-03T04:13:04;100866.03;;;-0.51;100.00
65997;BME280;52765;52.258;21.052;2023-03-03T04:15:30;100849.94;;;-0.46;100.00
65997;BME280;52765;52.258;21.052;2023-03-03T04:17:55;100853.38;;;-0.44;100.00
65997;BME280;52765;52.258;21.052;2023-03-03T04:20:21;100842.94;;;-0.47;100.00
65997;BME280;52765;52.258;21.052;2023-03-03T04:22:47;100842.22;;;-0.51;100.00
65997;BME280;52765;52.258;21.052;2023-03-03T04:25:14;100842.00;;;-0.46;100.00
65997;BME280;52765;52.258;21.052;2023-03-03T04:27:40;100842.00;;;-0.46;100.00
65997;BME280;52765;52.258;21.052;2023-03-03T04:30:08;100828.16;;;-0.51;100.00
65997;BME280;52765;52.258;21.052;2023-03-03T04:32:34;100828.78;;;-0.46;100.00
65997;BME280;52765;52.258;21.052;2023-03-03T04:35:00;100827.75;;;-0.44;100.00
65997;BME280;52765;52.258;21.052;2023-03-03T04:37:26;100828.63;;;-0.43;100.00
65997;BME280;52765;52.258;21.052;2023-03-03T04:39:52;100843.63;;;-0.44;100.00
65997;BME280;52765;52.258;21.052;2023-03-03T04:42:18;100827.06;;;-0.47;100.00
65997;BME280;52765;52.258;21.052;2023-03-03T04:44:43;100844.66;;;-0.46;100.00
65997;BME280;52765;52.258;21.052;2023-03-03T04:47:09;100822.13;;;-0.55;100.00
65997;BME280;52765;52.258;21.052;2023-03-03T04:49:34;100820.84;;;-0.65;100.00
65997;BME280;52765;52.258;21.052;2023-03-03T04:52:00;100821.94;;;-0.69;100.00
65997;BME280;52765;52.258;21.052;2023-03-03T04:54:26;100812.34;;;-0.72;100.00
65997;BME280;52765;52.258;21.052;2023-03-03T04:56:51;100798.00;;;-0.85;100.00
65997;BME280;52765;52.258;21.052;2023-03-03T04:59:17;100814.44;;;-0.79;100.00
65997;BME280;52765;52.258;21.052;2023-03-03T05:01:43;100816.16;;;-0.78;100.00
65997;BME280;52765;52.258;21.052;2023-03-03T05:04:10;100819.44;;;-0.72;100.00
65997;BME280;52765;52.258;21.052;2023-03-03T05:06:36;100808.78;;;-0.71;100.00
65997;BME280;52765;52.258;21.052;2023-03-03T05:09:02;100805.03;;;-0.67;100.00
65997;BME280;52765;52.258;21.052;2023-03-03T05:11:27;100803.78;;;-0.77;100.00
65997;BME280;52765;52.258;21.052;2023-03-03T05:13:53;100798.47;;;-0.77;100.00
65997;BME280;52765;52.258;21.052;2023-03-03T05:16:18;100807.75;;;-0.68;100.00
65997;BME280;52765;52.258;21.052;2023-03-03T05:18:44;100798.69;;;-0.63;100.00
65997;BME280;52765;52.258;21.052;2023-03-03T05:21:12;100803.13;;;-0.63;100.00
65997;BME280;52765;52.258;21.052;2023-03-03T05:23:37;100802.97;;;-0.60;100.00
65997;BME280;52765;52.258;21.052;2023-03-03T05:26:06;100806.09;;;-0.52;100.00
65997;BME280;52765;52.258;21.052;2023-03-03T05:28:31;100807.81;;;-0.51;100.00
65997;BME280;52765;52.258;21.052;2023-03-03T05:30:57;100798.97;;;-0.50;100.00
65997;BME280;52765;52.258;21.052;2023-03-03T05:33:22;100798.63;;;-0.44;100.00
65997;BME280;52765;52.258;21.052;2023-03-03T05:35:52;100801.75;;;-0.35;100.00
65997;BME280;52765;52.258;21.052;2023-03-03T05:38:18;100803.41;;;-0.33;100.00
65997;BME280;52765;52.258;21.052;2023-03-03T05:40:43;100798.13;;;-0.33;100.00
65997;BME280;52765;52.258;21.052;2023-03-03T05:43:09;100801.22;;;-0.42;100.00
65997;BME280;52765;52.258;21.052;2023-03-03T05:45:34;100805.19;;;-0.33;100.00
65997;BME280;52765;52.258;21.052;2023-03-03T05:48:00;100799.66;;;-0.29;100.00
65997;BME280;52765;52.258;21.052;2023-03-03T05:50:25;100802.22;;;-0.45;100.00
65997;BME280;52765;52.258;21.052;2023-03-03T05:52:51;100792.63;;;-0.47;100.00
65997;BME280;52765;52.258;21.052;2023-03-03T05:55:17;100795.91;;;-0.42;100.00
65997;BME280;52765;52.258;21.052;2023-03-03T05:57:43;100792.75;;;-0.31;100.00
65997;BME280;52765;52.258;21.052;2023-03-03T06:00:09;100796.25;;;-0.31;100.00
65997;BME280;52765;52.258;21.052;2023-03-03T06:02:35;100790.53;;;-0.41;100.00
65997;BME280;52765;52.258;21.052;2023-03-03T06:05:00;100794.38;;;-0.46;100.00
65997;BME280;52765;52.258;21.052;2023-03-03T06:07:26;100778.94;;;-0.56;100.00
65997;BME280;52765;52.258;21.052;2023-03-03T06:09:51;100792.94;;;-0.53;100.00
65997;BME280;52765;52.258;21.052;2023-03-03T06:12:17;100787.56;;;-0.52;100.00
65997;BME280;52765;52.258;21.052;2023-03-03T06:14:42;100797.88;;;-0.46;100.00
65997;BME280;52765;52.258;21.052;2023-03-03T06:17:08;100795.00;;;-0.41;100.00
65997;BME280;52765;52.258;21.052;2023-03-03T06:19:35;100813.06;;;-0.32;100.00
65997;BME280;52765;52.258;21.052;2023-03-03T06:22:00;100808.00;;;-0.19;100.00
65997;BME280;52765;52.258;21.052;2023-03-03T06:24:26;100804.81;;;-0.26;100.00
65997;BME280;52765;52.258;21.052;2023-03-03T06:26:55;100808.94;;;-0.20;100.00
65997;BME280;52765;52.258;21.052;2023-03-03T06:29:22;100809.81;;;-0.20;100.00
65997;BME280;52765;52.258;21.052;2023-03-03T06:31:54;100796.56;;;-0.20;100.00
65997;BME280;52765;52.258;21.052;2023-03-03T06:34:23;100807.31;;;-0.23;100.00
65997;BME280;52765;52.258;21.052;2023-03-03T06:36:56;100812.28;;;-0.34;100.00
65997;BME280;52765;52.258;21.052;2023-03-03T06:39:31;100804.25;;;-0.50;100.00
65997;BME280;52765;52.258;21.052;2023-03-03T06:42:00;100799.53;;;-0.62;100.00
65997;BME280;52765;52.258;21.052;2023-03-03T06:44:26;100811.78;;;-0.79;100.00
65997;BME280;52765;52.258;21.052;2023-03-03T06:46:52;100809.28;;;-0.82;100.00
65997;BME280;52765;52.258;21.052;2023-03-03T06:49:18;100812.31;;;-0.89;100.00
65997;BME280;52765;52.258;21.052;2023-03-03T06:51:43;100819.59;;;-0.95;100.00
65997;BME280;52765;52.258;21.052;2023-03-03T06:54:13;100796.28;;;-1.05;100.00
65997;BME280;52765;52.258;21.052;2023-03-03T06:56:40;100814.38;;;-0.96;100.00
65997;BME280;52765;52.258;21.052;2023-03-03T06:59:12;100819.81;;;-0.99;100.00
65997;BME280;52765;52.258;21.052;2023-03-03T07:01:39;100805.34;;;-0.92;100.00
65997;BME280;52765;52.258;21.052;2023-03-03T07:04:26;100820.28;;;-0.72;100.00
65997;BME280;52765;52.258;21.052;2023-03-03T07:06:57;100818.25;;;-0.48;100.00
65997;BME280;52765;52.258;21.052;2023-03-03T07:09:26;100807.84;;;-0.33;100.00
65997;BME280;52765;52.258;21.052;2023-03-03T07:12:08;100815.03;;;-0.18;100.00
65997;BME280;52765;52.258;21.052;2023-03-03T07:14:41;100810.88;;;-0.24;100.00
65997;BME280;52765;52.258;21.052;2023-03-03T07:17:12;100817.97;;;-0.42;100.00
65997;BME280;52765;52.258;21.052;2023-03-03T07:19:39;100817.00;;;-0.58;100.00
65997;BME280;52765;52.258;21.052;2023-03-03T07:22:17;100810.97;;;-0.62;100.00
65997;BME280;52765;52.258;21.052;2023-03-03T07:24:44;100802.66;;;-0.71;100.00
65997;BME280;52765;52.258;21.052;2023-03-03T07:27:13;100793.47;;;-0.64;100.00
65997;BME280;52765;52.258;21.052;2023-03-03T07:29:41;100800.44;;;-0.81;100.00
65997;BME280;52765;52.258;21.052;2023-03-03T07:34:47;100810.50;;;-0.70;100.00
65997;BME280;52765;52.258;21.052;2023-03-03T07:37:34;100804.63;;;-0.58;100.00
65997;BME280;52765;52.258;21.052;2023-03-03T07:40:00;100805.53;;;-0.59;100.00
65997;BME280;52765;52.258;21.052;2023-03-03T07:42:39;100810.66;;;-0.36;100.00
65997;BME280;52765;52.258;21.052;2023-03-03T07:45:38;100814.56;;;-0.26;100.00
65997;BME280;52765;52.258;21.052;2023-03-03T07:48:16;100812.06;;;-0.29;100.00
65997;BME280;52765;52.258;21.052;2023-03-03T07:50:44;100823.06;;;-0.20;100.00
65997;BME280;52765;52.258;21.052;2023-03-03T07:53:39;100814.50;;;-0.25;100.00
65997;BME280;52765;52.258;21.052;2023-03-03T07:56:16;100823.44;;;-0.27;100.00
65997;BME280;52765;52.258;21.052;2023-03-03T07:58:44;100823.50;;;-0.29;100.00
65997;BME280;52765;52.258;21.052;2023-03-03T08:01:47;100828.69;;;-0.08;100.00
65997;BME280;52765;52.258;21.052;2023-03-03T08:06:57;100810.44;;;-0.14;100.00
65997;BME280;52765;52.258;21.052;2023-03-03T08:12:23;100831.41;;;0.08;100.00
65997;BME280;52765;52.258;21.052;2023-03-03T08:17:40;100836.91;;;0.03;100.00
65997;BME280;52765;52.258;21.052;2023-03-03T08:20:39;100832.91;;;0.13;100.00
65997;BME280;52765;52.258;21.052;2023-03-03T08:23:11;100832.91;;;0.13;100.00
65997;BME280;52765;52.258;21.052;2023-03-03T08:25:37;100843.56;;;0.29;100.00
65997;BME280;52765;52.258;21.052;2023-03-03T08:28:11;100842.78;;;0.27;100.00
65997;BME280;52765;52.258;21.052;2023-03-03T08:30:44;100844.47;;;0.46;100.00
65997;BME280;52765;52.258;21.052;2023-03-03T08:33:13;100831.53;;;0.57;100.00
65997;BME280;52765;52.258;21.052;2023-03-03T08:35:41;100824.34;;;0.59;100.00
65997;BME280;52765;52.258;21.052;2023-03-03T08:38:11;100867.94;;;0.53;100.00
65997;BME280;52765;52.258;21.052;2023-03-03T08:40:37;100867.16;;;0.34;100.00
65997;BME280;52765;52.258;21.052;2023-03-03T08:43:13;100873.41;;;0.15;100.00
65997;BME280;52765;52.258;21.052;2023-03-03T08:45:44;100877.22;;;0.10;100.00
65997;BME280;52765;52.258;21.052;2023-03-03T08:48:24;100864.78;;;-0.25;100.00
65997;BME280;52765;52.258;21.052;2023-03-03T08:50:49;100883.66;;;-0.50;100.00
65997;BME280;52765;52.258;21.052;2023-03-03T08:53:15;100874.41;;;-0.41;100.00
65997;BME280;52765;52.258;21.052;2023-03-03T08:55:42;100875.59;;;-0.29;100.00
65997;BME280;52765;52.258;21.052;2023-03-03T08:58:08;100873.81;;;-0.29;100.00
65997;BME280;52765;52.258;21.052;2023-03-03T09:00:33;100869.78;;;-0.19;100.00
65997;BME280;52765;52.258;21.052;2023-03-03T09:02:59;100867.19;;;-0.20;100.00
65997;BME280;52765;52.258;21.052;2023-03-03T09:05:26;100868.44;;;-0.27;100.00
65997;BME280;52765;52.258;21.052;2023-03-03T09:07:52;100875.06;;;-0.19;100.00
65997;BME280;52765;52.258;21.052;2023-03-03T09:10:22;100875.25;;;-0.41;100.00
65997;BME280;52765;52.258;21.052;2023-03-03T09:12:52;100866.53;;;-0.43;100.00
65997;BME280;52765;52.258;21.052;2023-03-03T09:15:27;100858.81;;;-0.11;100.00
65997;BME280;52765;52.258;21.052;2023-03-03T09:17:57;100857.34;;;0.01;100.00
65997;BME280;52765;52.258;21.052;2023-03-03T09:25:52;100844.66;;;0.76;100.00
65997;BME280;52765;52.258;21.052;2023-03-03T09:28:29;100832.13;;;0.96;100.00
65997;BME280;52765;52.258;21.052;2023-03-03T09:31:00;100831.19;;;1.13;100.00
65997;BME280;52765;52.258;21.052;2023-03-03T09:36:10;100835.19;;;1.20;100.00
65997;BME280;52765;52.258;21.052;2023-03-03T09:38:42;100825.78;;;1.14;100.00
65997;BME280;52765;52.258;21.052;2023-03-03T09:46:59;100827.47;;;0.50;100.00
65997;BME280;52765;52.258;21.052;2023-03-03T09:57:15;100821.22;;;0.84;100.00
65997;BME280;52765;52.258;21.052;2023-03-03T10:05:18;100812.84;;;1.08;100.00
65997;BME280;52765;52.258;21.052;2023-03-03T10:10:45;100827.31;;;1.02;100.00
65997;BME280;52765;52.258;21.052;2023-03-03T10:13:28;100817.13;;;0.45;100.00
65997;BME280;52765;52.258;21.052;2023-03-03T10:19:10;100834.28;;;-0.14;100.00
65997;BME280;52765;52.258;21.052;2023-03-03T10:21:49;100827.13;;;0.05;100.00
65997;BME280;52765;52.258;21.052;2023-03-03T10:32:33;100828.25;;;0.52;100.00
65997;BME280;52765;52.258;21.052;2023-03-03T10:35:22;100835.72;;;0.61;100.00
65997;BME280;52765;52.258;21.052;2023-03-03T10:38:08;100829.84;;;0.72;100.00
65997;BME280;52765;52.258;21.052;2023-03-03T10:43:57;100840.81;;;0.48;100.00
65997;BME280;52765;52.258;21.052;2023-03-03T11:01:34;100847.25;;;-0.27;100.00
65997;BME280;52765;52.258;21.052;2023-03-03T11:04:49;100836.25;;;-0.37;100.00
65997;BME280;52765;52.258;21.052;2023-03-03T11:07:26;100831.28;;;-0.62;100.00
65997;BME280;52765;52.258;21.052;2023-03-03T11:15:22;100836.31;;;-0.39;100.00
65997;BME280;52765;52.258;21.052;2023-03-03T11:29:24;100824.75;;;-0.55;100.00
65997;BME280;52765;52.258;21.052;2023-03-03T11:37:39;100825.38;;;-0.31;100.00
65997;BME280;52765;52.258;21.052;2023-03-03T11:43:33;100832.28;;;-0.46;100.00
65997;BME280;52765;52.258;21.052;2023-03-03T11:46:18;100815.28;;;-0.59;100.00
65997;BME280;52765;52.258;21.052;2023-03-03T11:48:58;100829.03;;;-0.70;100.00
65997;BME280;52765;52.258;21.052;2023-03-03T12:00:04;100836.31;;;-0.39;100.00
65997;BME280;52765;52.258;21.052;2023-03-03T12:24:36;100814.91;;;-0.51;100.00
65997;BME280;52765;52.258;21.052;2023-03-03T12:41:22;100822.25;;;-0.39;100.00
65997;BME280;52765;52.258;21.052;2023-03-03T12:44:00;100814.91;;;-0.51;100.00
65997;BME280;52765;52.258;21.052;2023-03-03T12:49:08;100826.16;;;-0.84;100.00
65997;BME280;52765;52.258;21.052;2023-03-03T12:52:32;100813.94;;;-0.87;100.00
65997;BME280;52765;52.258;21.052;2023-03-03T13:10:58;100815.81;;;0.02;100.00
65997;BME280;52765;52.258;21.052;2023-03-03T13:16:12;100807.69;;;-0.30;100.00
65997;BME280;52765;52.258;21.052;2023-03-03T13:24:25;100799.91;;;-0.16;100.00
65997;BME280;52765;52.258;21.052;2023-03-03T13:27:06;100817.06;;;-0.06;100.00
65997;BME280;52765;52.258;21.052;2023-03-03T13:32:23;100809.63;;;-0.70;100.00
65997;BME280;52765;52.258;21.052;2023-03-03T13:37:26;100803.13;;;-0.63;100.00
65997;BME280;52765;52.258;21.052;2023-03-03T13:42:27;100796.78;;;-0.42;100.00
65997;BME280;52765;52.258;21.052;2023-03-03T13:44:56;100785.97;;;-0.37;100.00
65997;BME280;52765;52.258;21.052;2023-03-03T13:53:36;100793.81;;;-0.72;100.00
65997;BME280;52765;52.258;21.052;2023-03-03T13:56:22;100789.41;;;-0.90;100.00
65997;BME280;52765;52.258;21.052;2023-03-03T13:59:29;100778.91;;;-0.92;100.00
65997;BME280;52765;52.258;21.052;2023-03-03T14:10:22;100781.22;;;-0.67;100.00
65997;BME280;52765;52.258;21.052;2023-03-03T14:13:10;100775.50;;;-0.40;100.00
65997;BME280;52765;52.258;21.052;2023-03-03T14:16:00;100779.91;;;-0.22;100.00
65997;BME280;52765;52.258;21.052;2023-03-03T14:18:38;100778.25;;;-0.07;100.00
65997;BME280;52765;52.258;21.052;2023-03-03T14:21:13;100768.44;;;-0.22;100.00
65997;BME280;52765;52.258;21.052;2023-03-03T14:24:02;100772.78;;;-0.56;100.00
65997;BME280;52765;52.258;21.052;2023-03-03T14:26:51;100775.50;;;-0.58;100.00
65997;BME280;52765;52.258;21.052;2023-03-03T14:31:49;100780.72;;;-0.56;100.00
65997;BME280;52765;52.258;21.052;2023-03-03T14:37:07;100783.94;;;-0.49;100.00
65997;BME280;52765;52.258;21.052;2023-03-03T14:39:50;100786.44;;;-0.46;100.00
65997;BME280;52765;52.258;21.052;2023-03-03T14:45:40;100783.38;;;-0.56;100.00
65997;BME280;52765;52.258;21.052;2023-03-03T14:50:45;100776.94;;;-0.33;100.00
65997;BME280;52765;52.258;21.052;2023-03-03T14:55:52;100761.50;;;-0.07;100.00
65997;BME280;52765;52.258;21.052;2023-03-03T14:58:29;100764.16;;;-0.07;100.00
65997;BME280;52765;52.258;21.052;2023-03-03T15:01:35;100767.88;;;0.06;100.00
65997;BME280;52765;52.258;21.052;2023-03-03T15:06:49;100754.56;;;0.08;100.00
65997;BME280;52765;52.258;21.052;2023-03-03T15:09:29;100751.75;;;0.11;100.00
65997;BME280;52765;52.258;21.052;2023-03-03T15:11:59;100768.50;;;0.11;100.00
65997;BME280;52765;52.258;21.052;2023-03-03T15:14:46;100764.97;;;0.28;100.00
65997;BME280;52765;52.258;21.052;2023-03-03T15:20:55;100772.38;;;0.39;100.00
65997;BME280;52765;52.258;21.052;2023-03-03T15:26:25;100770.50;;;0.41;100.00
65997;BME280;52765;52.258;21.052;2023-03-03T15:31:51;100783.50;;;0.46;100.00
65997;BME280;52765;52.258;21.052;2023-03-03T15:34:38;100773.44;;;0.35;100.00
65997;BME280;52765;52.258;21.052;2023-03-03T15:37:38;100771.53;;;0.39;100.00
65997;BME280;52765;52.258;21.052;2023-03-03T15:40:28;100766.81;;;0.10;100.00
65997;BME280;52765;52.258;21.052;2023-03-03T15:54:21;100765.09;;;0.09;100.00
65997;BME280;52765;52.258;21.052;2023-03-03T15:56:57;100760.31;;;0.16;100.00
65997;BME280;52765;52.258;21.052;2023-03-03T16:02:10;100760.91;;;0.05;100.00
65997;BME280;52765;52.258;21.052;2023-03-03T16:13:22;100763.50;;;0.23;100.00
65997;BME280;52765;52.258;21.052;2023-03-03T16:16:04;100753.88;;;-0.13;100.00
65997;BME280;52765;52.258;21.052;2023-03-03T16:27:04;100756.69;;;-0.34;100.00
65997;BME280;52765;52.258;21.052;2023-03-03T16:29:43;100750.94;;;-0.25;100.00
65997;BME280;52765;52.258;21.052;2023-03-03T16:32:15;100746.66;;;-0.10;100.00
65997;BME280;52765;52.258;21.052;2023-03-03T16:34:59;100736.38;;;-0.16;100.00
65997;BME280;52765;52.258;21.052;2023-03-03T16:37:35;100757.63;;;-0.17;100.00
65997;BME280;52765;52.258;21.052;2023-03-03T16:40:30;100752.19;;;-0.14;100.00
65997;BME280;52765;52.258;21.052;2023-03-03T16:45:56;100762.31;;;-0.23;100.00
65997;BME280;52765;52.258;21.052;2023-03-03T16:52:24;100751.34;;;-0.69;100.00
65997;BME280;52765;52.258;21.052;2023-03-03T16:55:14;100730.41;;;-0.73;100.00
65997;BME280;52765;52.258;21.052;2023-03-03T17:05:50;100743.84;;;-0.24;100.00
65997;BME280;52765;52.258;21.052;2023-03-03T17:11:33;100745.94;;;-0.13;100.00
65997;BME280;52765;52.258;21.052;2023-03-03T17:25:11;100736.53;;;-0.02;100.00
65997;BME280;52765;52.258;21.052;2023-03-03T17:28:09;100742.91;;;0.12;100.00
65997;BME280;52765;52.258;21.052;2023-03-03T17:30:54;100740.16;;;0.13;100.00
65997;BME280;52765;52.258;21.052;2023-03-03T17:33:35;100748.81;;;0.17;100.00
65997;BME280;52765;52.258;21.052;2023-03-03T17:36:24;100753.19;;;0.01;100.00
65997;BME280;52765;52.258;21.052;2023-03-03T17:42:32;100747.38;;;0.10;100.00
65997;BME280;52765;52.258;21.052;2023-03-03T17:45:13;100742.63;;;0.16;100.00
65997;BME280;52765;52.258;21.052;2023-03-03T17:59:06;100731.84;;;-0.14;100.00
65997;BME280;52765;52.258;21.052;2023-03-03T18:02:07;100719.78;;;-0.20;100.00
65997;BME280;52765;52.258;21.052;2023-03-03T18:15:33;100744.38;;;0.00;100.00
65997;BME280;52765;52.258;21.052;2023-03-03T18:23:28;100722.75;;;-0.26;100.00
65997;BME280;52765;52.258;21.052;2023-03-03T18:26:03;100714.94;;;-0.29;100.00